sensor_id;sensor_type;location;lat;lon;timestamp;pressure;altitude;pressure_sealevel;temperature;humidity
9676;BME280;4876;42.656;23.292;2022-10-31T00:01:16;94843.81;;;15.29;54.55
9676;BME280;4876;42.656;23.292;2022-10-31T00:03:43;94835.28;;;15.23;54.74
9676;BME280;4876;42.656;23.292;2022-10-31T00:06:10;94830.59;;;15.41;54.49
9676;BME280;4876;42.656;23.292;2022-10-31T00:08:36;94829.94;;;15.44;54.49
9676;BME280;4876;42.656;23.292;2022-10-31T00:11:03;94823.72;;;15.40;54.62
9676;BME280;4876;42.656;23.292;2022-10-31T00:13:31;94831.25;;;15.38;54.78
9676;BME280;4876;42.656;23.292;2022-10-31T00:15:59;94831.69;;;15.28;55.01
9676;BME280;4876;42.656;23.292;2022-10-31T00:18:26;94829.03;;;15.40;54.79
9676;BME280;4876;42.656;23.292;2022-10-31T00:20:58;94826.06;;;15.42;54.91
9676;BME280;4876;42.656;23.292;2022-10-31T00:23:25;94836.97;;;15.28;55.33
9676;BME280;4876;42.656;23.292;2022-10-31T00:25:52;94841.75;;;15.14;55.52
9676;BME280;4876;42.656;23.292;2022-10-31T00:28:19;94837.19;;;15.02;56.21
9676;BME280;4876;42.656;23.292;2022-10-31T00:30:46;94832.22;;;15.00;56.26
9676;BME280;4876;42.656;23.292;2022-10-31T00:33:14;94828.13;;;15.03;56.37
9676;BME280;4876;42.656;23.292;2022-10-31T00:35:41;94831.94;;;15.14;56.27
9676;BME280;4876;42.656;23.292;2022-10-31T00:38:07;94823.69;;;15.16;56.23
9676;BME280;4876;42.656;23.292;2022-10-31T00:40:34;94825.66;;;15.19;56.17
9676;BME280;4876;42.656;23.292;2022-10-31T00:43:01;94826.25;;;15.24;56.33
9676;BME280;4876;42.656;23.292;2022-10-31T00:45:27;94830.41;;;15.13;56.26
9676;BME280;4876;42.656;23.292;2022-10-31T00:47:54;94819.28;;;15.20;56.32
9676;BME280;4876;42.656;23.292;2022-10-31T00:50:22;94821.22;;;15.11;56.52
9676;BME280;4876;42.656;23.292;2022-10-31T00:52:49;94822.25;;;15.18;56.49
9676;BME280;4876;42.656;23.292;2022-10-31T00:55:16;94811.53;;;15.15;56.30
9676;BME280;4876;42.656;23.292;2022-10-31T00:57:42;94821.28;;;15.23;56.30
9676;BME280;4876;42.656;23.292;2022-10-31T01:00:12;94825.22;;;15.17;56.51
9676;BME280;4876;42.656;23.292;2022-10-31T01:02:39;94824.56;;;15.20;56.71
9676;BME280;4876;42.656;23.292;2022-10-31T01:05:06;94822.63;;;15.29;56.19
9676;BME280;4876;42.656;23.292;2022-10-31T01:07:37;94824.69;;;15.23;56.28
9676;BME280;4876;42.656;23.292;2022-10-31T01:10:05;94819.50;;;15.27;56.73
9676;BME280;4876;42.656;23.292;2022-10-31T01:12:35;94816.41;;;15.25;56.48
9676;BME280;4876;42.656;23.292;2022-10-31T01:15:03;94829.34;;;15.26;56.42
9676;BME280;4876;42.656;23.292;2022-10-31T01:17:30;94834.19;;;15.24;56.88
9676;BME280;4876;42.656;23.292;2022-10-31T01:19:57;94827.94;;;15.08;56.98
9676;BME280;4876;42.656;23.292;2022-10-31T01:22:23;94831.84;;;15.11;57.39
9676;BME280;4876;42.656;23.292;2022-10-31T01:24:52;94832.59;;;15.11;57.19
9676;BME280;4876;42.656;23.292;2022-10-31T01:27:19;94839.81;;;15.23;57.21
9676;BME280;4876;42.656;23.292;2022-10-31T01:29:45;94841.56;;;15.19;57.81
9676;BME280;4876;42.656;23.292;2022-10-31T01:32:12;94840.88;;;15.10;58.15
9676;BME280;4876;42.656;23.292;2022-10-31T01:34:39;94832.59;;;15.11;58.23
9676;BME280;4876;42.656;23.292;2022-10-31T01:37:06;94826.34;;;15.16;57.68
9676;BME280;4876;42.656;23.292;2022-10-31T01:39:33;94836.47;;;15.14;57.86
9676;BME280;4876;42.656;23.292;2022-10-31T01:42:01;94842.97;;;15.04;58.05
9676;BME280;4876;42.656;23.292;2022-10-31T01:44:56;94842.88;;;15.13;57.89
9676;BME280;4876;42.656;23.292;2022-10-31T01:47:42;94841.25;;;15.20;57.56
9676;BME280;4876;42.656;23.292;2022-10-31T01:50:26;94839.16;;;15.26;57.82
9676;BME280;4876;42.656;23.292;2022-10-31T01:52:55;94829.38;;;15.05;57.97
9676;BME280;4876;42.656;23.292;2022-10-31T01:55:25;94840.59;;;15.23;57.92
9676;BME280;4876;42.656;23.292;2022-10-31T01:57:58;94841.56;;;15.19;58.06
9676;BME280;4876;42.656;23.292;2022-10-31T02:00:26;94853.50;;;15.25;57.69
9676;BME280;4876;42.656;23.292;2022-10-31T02:02:53;94847.78;;;15.23;57.96
9676;BME280;4876;42.656;23.292;2022-10-31T02:05:22;94848.41;;;15.20;57.81
9676;BME280;4876;42.656;23.292;2022-10-31T02:07:55;94838.16;;;15.18;57.97
9676;BME280;4876;42.656;23.292;2022-10-31T02:10:24;94835.84;;;15.17;58.02
9676;BME280;4876;42.656;23.292;2022-10-31T02:12:52;94817.34;;;15.08;57.95
9676;BME280;4876;42.656;23.292;2022-10-31T02:15:21;94836.31;;;15.31;57.87
9676;BME280;4876;42.656;23.292;2022-10-31T02:17:48;94837.63;;;15.25;58.08
9676;BME280;4876;42.656;23.292;2022-10-31T02:20:16;94826.44;;;15.19;58.42
9676;BME280;4876;42.656;23.292;2022-10-31T02:25:51;94832.47;;;15.07;58.97
9676;BME280;4876;42.656;23.292;2022-10-31T02:28:33;94844.75;;;15.12;59.07
9676;BME280;4876;42.656;23.292;2022-10-31T02:31:20;94843.53;;;14.89;59.62
9676;BME280;4876;42.656;23.292;2022-10-31T02:33:52;94839.19;;;14.84;60.02
9676;BME280;4876;42.656;23.292;2022-10-31T02:36:24;94852.00;;;14.82;60.28
9676;BME280;4876;42.656;23.292;2022-10-31T02:39:00;94845.41;;;14.88;60.11
9676;BME280;4876;42.656;23.292;2022-10-31T02:41:37;94850.63;;;14.76;60.74
9676;BME280;4876;42.656;23.292;2022-10-31T02:44:09;94864.03;;;14.79;60.59
9676;BME280;4876;42.656;23.292;2022-10-31T02:46:44;94856.13;;;14.71;60.84
9676;BME280;4876;42.656;23.292;2022-10-31T02:49:16;94869.00;;;14.81;60.88
9676;BME280;4876;42.656;23.292;2022-10-31T02:51:45;94826.56;;;14.39;61.43
9676;BME280;4876;42.656;23.292;2022-10-31T02:54:19;94860.97;;;14.69;61.23
9676;BME280;4876;42.656;23.292;2022-10-31T02:56:48;94874.16;;;14.77;61.27
9676;BME280;4876;42.656;23.292;2022-10-31T02:59:18;94865.91;;;14.79;61.48
9676;BME280;4876;42.656;23.292;2022-10-31T03:01:56;94868.91;;;14.69;61.79
9676;BME280;4876;42.656;23.292;2022-10-31T03:04:49;94866.28;;;14.69;61.94
9676;BME280;4876;42.656;23.292;2022-10-31T03:07:24;94866.63;;;14.59;61.96
9676;BME280;4876;42.656;23.292;2022-10-31T03:10:02;94874.06;;;14.65;62.02
9676;BME280;4876;42.656;23.292;2022-10-31T03:12:35;94852.84;;;14.44;62.20
9676;BME280;4876;42.656;23.292;2022-10-31T03:15:12;94872.00;;;14.71;62.08
9676;BME280;4876;42.656;23.292;2022-10-31T03:17:47;94872.41;;;14.61;62.33
9676;BME280;4876;42.656;23.292;2022-10-31T03:20:19;94868.78;;;14.65;62.53
9676;BME280;4876;42.656;23.292;2022-10-31T03:22:48;94870.38;;;14.58;62.41
9676;BME280;4876;42.656;23.292;2022-10-31T03:25:16;94872.28;;;14.78;61.94
9676;BME280;4876;42.656;23.292;2022-10-31T03:27:44;94873.69;;;14.75;62.00
9676;BME280;4876;42.656;23.292;2022-10-31T03:30:13;94869.69;;;14.69;62.02
9676;BME280;4876;42.656;23.292;2022-10-31T03:32:43;94879.38;;;14.65;62.16
9676;BME280;4876;42.656;23.292;2022-10-31T03:35:13;94878.50;;;14.52;62.35
9676;BME280;4876;42.656;23.292;2022-10-31T03:37:42;94854.78;;;14.35;62.91
9676;BME280;4876;42.656;23.292;2022-10-31T03:40:10;94884.59;;;14.44;62.79
9676;BME280;4876;42.656;23.292;2022-10-31T03:42:42;94881.03;;;14.40;63.24
9676;BME280;4876;42.656;23.292;2022-10-31T03:45:13;94880.00;;;14.33;63.38
9676;BME280;4876;42.656;23.292;2022-10-31T03:47:43;94882.78;;;14.36;63.48
9676;BME280;4876;42.656;23.292;2022-10-31T03:50:12;94869.47;;;14.24;63.34
9676;BME280;4876;42.656;23.292;2022-10-31T03:52:43;94888.25;;;14.31;63.97
9676;BME280;4876;42.656;23.292;2022-10-31T03:55:17;94887.25;;;14.15;64.02
9676;BME280;4876;42.656;23.292;2022-10-31T03:57:49;94883.31;;;14.21;64.17
9676;BME280;4876;42.656;23.292;2022-10-31T04:00:18;94894.19;;;14.28;64.32
9676;BME280;4876;42.656;23.292;2022-10-31T04:02:50;94878.69;;;14.18;64.27
9676;BME280;4876;42.656;23.292;2022-10-31T04:05:19;94892.81;;;14.22;64.69
9676;BME280;4876;42.656;23.292;2022-10-31T04:07:50;94896.44;;;14.09;65.28
9676;BME280;4876;42.656;23.292;2022-10-31T04:10:19;94903.31;;;14.01;65.34
9676;BME280;4876;42.656;23.292;2022-10-31T04:12:50;94899.09;;;14.09;65.39
9676;BME280;4876;42.656;23.292;2022-10-31T04:15:19;94907.19;;;14.04;65.42
9676;BME280;4876;42.656;23.292;2022-10-31T04:17:50;94898.31;;;14.08;65.41
9676;BME280;4876;42.656;23.292;2022-10-31T04:20:28;94902.66;;;14.13;65.24
9676;BME280;4876;42.656;23.292;2022-10-31T04:22:55;94904.66;;;14.16;65.10
9676;BME280;4876;42.656;23.292;2022-10-31T04:25:22;94903.59;;;14.17;65.45
9676;BME280;4876;42.656;23.292;2022-10-31T04:27:49;94911.38;;;14.13;65.39
9676;BME280;4876;42.656;23.292;2022-10-31T04:30:16;94904.09;;;14.01;65.95
9676;BME280;4876;42.656;23.292;2022-10-31T04:32:42;94908.94;;;13.91;66.32
9676;BME280;4876;42.656;23.292;2022-10-31T04:35:11;94906.63;;;13.89;66.58
9676;BME280;4876;42.656;23.292;2022-10-31T04:37:37;94912.03;;;14.01;65.91
9676;BME280;4876;42.656;23.292;2022-10-31T04:40:05;94906.97;;;13.79;66.96
9676;BME280;4876;42.656;23.292;2022-10-31T04:42:32;94910.47;;;14.00;65.94
9676;BME280;4876;42.656;23.292;2022-10-31T04:44:59;94906.63;;;13.89;66.13
9676;BME280;4876;42.656;23.292;2022-10-31T04:47:25;94913.56;;;14.02;65.87
9676;BME280;4876;42.656;23.292;2022-10-31T04:49:52;94918.34;;;14.18;65.68
9676;BME280;4876;42.656;23.292;2022-10-31T04:52:20;94917.97;;;14.37;65.08
9676;BME280;4876;42.656;23.292;2022-10-31T04:54:47;94924.75;;;14.17;65.91
9676;BME280;4876;42.656;23.292;2022-10-31T04:57:13;94912.56;;;14.24;65.77
9676;BME280;4876;42.656;23.292;2022-10-31T04:59:40;94921.72;;;14.27;66.06
9676;BME280;4876;42.656;23.292;2022-10-31T05:02:07;94930.94;;;14.21;66.02
9676;BME280;4876;42.656;23.292;2022-10-31T05:04:34;94924.63;;;14.05;66.75
9676;BME280;4876;42.656;23.292;2022-10-31T05:07:00;94938.88;;;14.21;66.28
9676;BME280;4876;42.656;23.292;2022-10-31T05:09:28;94937.66;;;14.10;65.72
9676;BME280;4876;42.656;23.292;2022-10-31T05:11:55;94941.00;;;13.89;66.34
9676;BME280;4876;42.656;23.292;2022-10-31T05:14:22;94949.69;;;13.90;66.66
9676;BME280;4876;42.656;23.292;2022-10-31T05:16:49;94948.75;;;13.94;66.40
9676;BME280;4876;42.656;23.292;2022-10-31T05:19:15;94947.69;;;13.78;67.16
9676;BME280;4876;42.656;23.292;2022-10-31T05:21:42;94941.00;;;13.89;67.36
9676;BME280;4876;42.656;23.292;2022-10-31T05:24:09;94940.66;;;13.91;67.64
9676;BME280;4876;42.656;23.292;2022-10-31T05:26:37;94940.38;;;13.84;67.73
9676;BME280;4876;42.656;23.292;2022-10-31T05:29:04;94946.91;;;13.95;67.29
9676;BME280;4876;42.656;23.292;2022-10-31T05:31:30;94939.56;;;14.00;67.04
9676;BME280;4876;42.656;23.292;2022-10-31T05:33:57;94940.78;;;14.12;66.30
9676;BME280;4876;42.656;23.292;2022-10-31T05:36:24;94947.69;;;13.78;67.15
9676;BME280;4876;42.656;23.292;2022-10-31T05:38:50;94954.72;;;13.65;67.33
9676;BME280;4876;42.656;23.292;2022-10-31T05:41:17;94960.97;;;13.52;67.96
9676;BME280;4876;42.656;23.292;2022-10-31T05:43:46;94960.03;;;13.39;68.88
9676;BME280;4876;42.656;23.292;2022-10-31T05:46:13;94964.56;;;13.30;69.32
9676;BME280;4876;42.656;23.292;2022-10-31T05:48:39;94966.72;;;13.28;72.38
9676;BME280;4876;42.656;23.292;2022-10-31T05:51:06;94962.47;;;13.10;72.17
9676;BME280;4876;42.656;23.292;2022-10-31T05:53:33;94958.78;;;13.11;72.00
9676;BME280;4876;42.656;23.292;2022-10-31T05:56:00;94963.25;;;13.10;71.06
9676;BME280;4876;42.656;23.292;2022-10-31T05:58:26;94968.22;;;12.94;72.33
9676;BME280;4876;42.656;23.292;2022-10-31T06:00:54;94958.28;;;13.09;72.98
9676;BME280;4876;42.656;23.292;2022-10-31T06:03:21;94969.63;;;13.09;71.98
9676;BME280;4876;42.656;23.292;2022-10-31T06:05:48;94958.47;;;13.21;70.86
9676;BME280;4876;42.656;23.292;2022-10-31T06:08:15;94981.97;;;13.31;70.06
9676;BME280;4876;42.656;23.292;2022-10-31T06:10:41;94984.13;;;13.29;70.20
9676;BME280;4876;42.656;23.292;2022-10-31T06:13:09;94982.25;;;13.21;70.18
9676;BME280;4876;42.656;23.292;2022-10-31T06:15:36;94982.09;;;13.26;70.08
9676;BME280;4876;42.656;23.292;2022-10-31T06:18:05;94946.31;;;13.03;69.76
9676;BME280;4876;42.656;23.292;2022-10-31T06:20:32;94990.81;;;13.35;70.18
9676;BME280;4876;42.656;23.292;2022-10-31T06:22:59;94968.38;;;13.15;70.28
9676;BME280;4876;42.656;23.292;2022-10-31T06:25:27;94994.00;;;12.98;71.59
9676;BME280;4876;42.656;23.292;2022-10-31T06:27:54;94979.41;;;13.09;70.06
9676;BME280;4876;42.656;23.292;2022-10-31T06:30:20;94994.72;;;13.29;70.43
9676;BME280;4876;42.656;23.292;2022-10-31T06:32:47;95008.50;;;13.35;70.25
9676;BME280;4876;42.656;23.292;2022-10-31T06:35:16;95012.56;;;13.41;70.17
9676;BME280;4876;42.656;23.292;2022-10-31T06:37:43;95003.09;;;13.31;69.66
9676;BME280;4876;42.656;23.292;2022-10-31T06:40:16;95006.03;;;13.38;69.68
9676;BME280;4876;42.656;23.292;2022-10-31T06:42:43;95011.16;;;13.52;69.59
9676;BME280;4876;42.656;23.292;2022-10-31T06:45:10;95014.44;;;13.49;70.07
9676;BME280;4876;42.656;23.292;2022-10-31T06:47:36;95018.16;;;13.57;69.83
9676;BME280;4876;42.656;23.292;2022-10-31T06:50:04;95021.13;;;13.64;69.78
9676;BME280;4876;42.656;23.292;2022-10-31T06:52:32;95020.81;;;13.74;69.81
9676;BME280;4876;42.656;23.292;2022-10-31T06:54:59;95018.59;;;13.85;69.14
9676;BME280;4876;42.656;23.292;2022-10-31T06:57:25;95017.34;;;13.99;68.46
9676;BME280;4876;42.656;23.292;2022-10-31T06:59:52;95022.63;;;14.17;68.20
9676;BME280;4876;42.656;23.292;2022-10-31T07:02:19;95015.88;;;14.37;67.21
9676;BME280;4876;42.656;23.292;2022-10-31T07:04:46;95013.06;;;14.42;66.97
9676;BME280;4876;42.656;23.292;2022-10-31T07:07:12;95020.66;;;14.43;66.94
9676;BME280;4876;42.656;23.292;2022-10-31T07:09:41;95026.56;;;14.40;67.24
9676;BME280;4876;42.656;23.292;2022-10-31T07:12:07;95023.47;;;14.56;66.33
9676;BME280;4876;42.656;23.292;2022-10-31T07:14:34;95024.56;;;14.54;66.52
9676;BME280;4876;42.656;23.292;2022-10-31T07:17:01;95022.63;;;14.72;66.59
9676;BME280;4876;42.656;23.292;2022-10-31T07:19:28;95022.41;;;14.86;65.71
9676;BME280;4876;42.656;23.292;2022-10-31T07:21:54;95025.75;;;14.95;65.73
9676;BME280;4876;42.656;23.292;2022-10-31T07:24:21;95012.56;;;14.87;66.37
9676;BME280;4876;42.656;23.292;2022-10-31T07:26:49;95008.72;;;15.05;65.51
9676;BME280;4876;42.656;23.292;2022-10-31T07:29:16;95004.56;;;15.25;64.38
9676;BME280;4876;42.656;23.292;2022-10-31T07:31:45;94987.94;;;15.16;65.30
9676;BME280;4876;42.656;23.292;2022-10-31T07:34:12;94999.59;;;15.23;65.03
9676;BME280;4876;42.656;23.292;2022-10-31T07:36:38;95003.19;;;15.40;64.65
9676;BME280;4876;42.656;23.292;2022-10-31T07:39:05;94999.72;;;15.69;63.74
9676;BME280;4876;42.656;23.292;2022-10-31T07:41:32;95000.88;;;15.38;64.84
9676;BME280;4876;42.656;23.292;2022-10-31T07:44:00;95005.47;;;15.50;65.23
9676;BME280;4876;42.656;23.292;2022-10-31T07:46:27;94997.66;;;15.74;63.70
9676;BME280;4876;42.656;23.292;2022-10-31T07:48:55;95003.72;;;15.75;63.96
9676;BME280;4876;42.656;23.292;2022-10-31T07:51:22;95002.63;;;15.76;63.94
9676;BME280;4876;42.656;23.292;2022-10-31T07:53:49;95004.13;;;15.65;63.99
9676;BME280;4876;42.656;23.292;2022-10-31T07:56:16;95007.25;;;15.67;63.86
9676;BME280;4876;42.656;23.292;2022-10-31T07:58:45;94995.91;;;15.78;63.02
9676;BME280;4876;42.656;23.292;2022-10-31T08:01:14;95009.00;;;15.96;63.31
9676;BME280;4876;42.656;23.292;2022-10-31T08:03:43;95013.81;;;16.14;62.32
9676;BME280;4876;42.656;23.292;2022-10-31T08:06:10;95018.50;;;16.30;61.93
9676;BME280;4876;42.656;23.292;2022-10-31T08:08:37;95009.34;;;16.52;61.35
9676;BME280;4876;42.656;23.292;2022-10-31T08:11:04;95010.13;;;16.64;61.09
9676;BME280;4876;42.656;23.292;2022-10-31T08:13:30;95006.63;;;16.85;60.58
9676;BME280;4876;42.656;23.292;2022-10-31T08:15:57;95007.97;;;17.03;59.70
9676;BME280;4876;42.656;23.292;2022-10-31T08:18:30;95004.19;;;17.16;59.15
9676;BME280;4876;42.656;23.292;2022-10-31T08:20:57;95002.28;;;17.17;59.38
9676;BME280;4876;42.656;23.292;2022-10-31T08:23:24;95008.81;;;17.19;59.24
9676;BME280;4876;42.656;23.292;2022-10-31T08:25:50;95008.38;;;17.17;59.12
9676;BME280;4876;42.656;23.292;2022-10-31T08:28:17;94984.91;;;16.95;59.60
9676;BME280;4876;42.656;23.292;2022-10-31T08:30:44;95006.84;;;17.04;59.41
9676;BME280;4876;42.656;23.292;2022-10-31T08:33:14;95005.50;;;17.22;58.91
9676;BME280;4876;42.656;23.292;2022-10-31T08:35:42;95007.59;;;17.17;59.39
9676;BME280;4876;42.656;23.292;2022-10-31T08:38:11;95003.25;;;17.37;58.62
9676;BME280;4876;42.656;23.292;2022-10-31T08:40:38;94980.88;;;17.26;59.01
9676;BME280;4876;42.656;23.292;2022-10-31T08:43:06;95007.72;;;17.20;59.62
9676;BME280;4876;42.656;23.292;2022-10-31T08:45:36;95010.56;;;17.40;59.44
9676;BME280;4876;42.656;23.292;2022-10-31T08:48:05;94990.13;;;17.56;58.66
9676;BME280;4876;42.656;23.292;2022-10-31T08:50:34;94994.25;;;17.82;57.79
9676;BME280;4876;42.656;23.292;2022-10-31T08:53:03;95008.88;;;17.88;57.54
9676;BME280;4876;42.656;23.292;2022-10-31T08:55:30;95004.19;;;17.97;57.24
9676;BME280;4876;42.656;23.292;2022-10-31T08:57:57;95006.63;;;18.02;57.33
9676;BME280;4876;42.656;23.292;2022-10-31T09:00:24;95008.28;;;18.22;57.04
9676;BME280;4876;42.656;23.292;2022-10-31T09:02:55;95003.75;;;18.39;56.13
9676;BME280;4876;42.656;23.292;2022-10-31T09:05:22;95003.50;;;18.60;55.73
9676;BME280;4876;42.656;23.292;2022-10-31T09:07:49;95015.59;;;18.41;56.44
9676;BME280;4876;42.656;23.292;2022-10-31T09:10:17;95004.25;;;18.44;56.41
9676;BME280;4876;42.656;23.292;2022-10-31T09:12:44;95002.31;;;18.13;57.10
9676;BME280;4876;42.656;23.292;2022-10-31T09:15:11;95001.69;;;18.48;56.53
9676;BME280;4876;42.656;23.292;2022-10-31T09:17:37;94996.19;;;18.56;55.79
9676;BME280;4876;42.656;23.292;2022-10-31T09:20:05;94997.75;;;18.73;55.79
9676;BME280;4876;42.656;23.292;2022-10-31T09:22:31;94999.75;;;18.76;55.93
9676;BME280;4876;42.656;23.292;2022-10-31T09:24:58;94991.44;;;18.50;56.18
9676;BME280;4876;42.656;23.292;2022-10-31T09:27:26;94996.28;;;18.60;56.05
9676;BME280;4876;42.656;23.292;2022-10-31T09:29:53;94994.13;;;18.66;56.08
9676;BME280;4876;42.656;23.292;2022-10-31T09:32:20;94990.44;;;18.86;55.34
9676;BME280;4876;42.656;23.292;2022-10-31T09:34:47;94997.44;;;19.10;55.05
9676;BME280;4876;42.656;23.292;2022-10-31T09:37:13;94992.13;;;19.10;54.95
9676;BME280;4876;42.656;23.292;2022-10-31T09:39:40;94996.81;;;19.32;54.51
9676;BME280;4876;42.656;23.292;2022-10-31T09:42:36;94988.56;;;19.22;54.67
9676;BME280;4876;42.656;23.292;2022-10-31T09:45:10;94990.09;;;19.39;54.51
9676;BME280;4876;42.656;23.292;2022-10-31T09:47:55;94995.56;;;19.46;54.52
9676;BME280;4876;42.656;23.292;2022-10-31T09:50:28;94992.19;;;19.49;54.27
9676;BME280;4876;42.656;23.292;2022-10-31T09:53:02;94995.31;;;19.35;54.34
9676;BME280;4876;42.656;23.292;2022-10-31T09:55:35;94987.81;;;19.41;54.17
9676;BME280;4876;42.656;23.292;2022-10-31T09:58:05;94991.22;;;19.57;53.54
9676;BME280;4876;42.656;23.292;2022-10-31T10:00:35;94970.59;;;19.73;53.19
9676;BME280;4876;42.656;23.292;2022-10-31T10:03:05;94993.91;;;19.96;52.14
9676;BME280;4876;42.656;23.292;2022-10-31T10:05:38;94981.94;;;20.09;51.68
9676;BME280;4876;42.656;23.292;2022-10-31T10:08:10;94980.47;;;20.34;51.63
9676;BME280;4876;42.656;23.292;2022-10-31T10:10:45;94974.34;;;20.11;52.28
9676;BME280;4876;42.656;23.292;2022-10-31T10:13:31;94976.91;;;20.27;52.31
9676;BME280;4876;42.656;23.292;2022-10-31T10:16:10;94971.50;;;20.23;51.78
9676;BME280;4876;42.656;23.292;2022-10-31T10:18:47;94968.59;;;20.09;51.44
9676;BME280;4876;42.656;23.292;2022-10-31T10:21:25;94957.84;;;20.28;51.18
9676;BME280;4876;42.656;23.292;2022-10-31T10:24:03;94956.53;;;20.41;50.56
9676;BME280;4876;42.656;23.292;2022-10-31T10:26:37;94959.66;;;20.43;50.48
9676;BME280;4876;42.656;23.292;2022-10-31T10:29:18;94898.97;;;20.21;49.99
9676;BME280;4876;42.656;23.292;2022-10-31T10:31:49;94953.75;;;20.80;49.52
9676;BME280;4876;42.656;23.292;2022-10-31T10:34:20;94952.00;;;20.91;48.85
9676;BME280;4876;42.656;23.292;2022-10-31T10:36:52;94955.09;;;20.93;47.81
9676;BME280;4876;42.656;23.292;2022-10-31T10:39:23;94856.88;;;20.37;47.32
9676;BME280;4876;42.656;23.292;2022-10-31T10:41:52;94937.06;;;21.17;47.01
9676;BME280;4876;42.656;23.292;2022-10-31T10:44:40;94937.06;;;21.17;47.63
9676;BME280;4876;42.656;23.292;2022-10-31T10:47:31;94934.06;;;21.18;46.85
9676;BME280;4876;42.656;23.292;2022-10-31T10:50:10;94917.38;;;21.29;46.22
9676;BME280;4876;42.656;23.292;2022-10-31T10:52:46;94926.22;;;21.33;45.68
9676;BME280;4876;42.656;23.292;2022-10-31T10:55:22;94911.06;;;21.14;45.82
9676;BME280;4876;42.656;23.292;2022-10-31T10:57:55;94935.03;;;21.33;45.51
9676;BME280;4876;42.656;23.292;2022-10-31T11:00:26;94929.38;;;21.42;45.77
9676;BME280;4876;42.656;23.292;2022-10-31T11:02:54;94934.41;;;21.43;45.85
9676;BME280;4876;42.656;23.292;2022-10-31T11:05:28;94927.91;;;21.44;45.54
9676;BME280;4876;42.656;23.292;2022-10-31T11:07:57;94933.72;;;21.54;45.33
9676;BME280;4876;42.656;23.292;2022-10-31T11:10:23;94923.78;;;21.50;45.82
9676;BME280;4876;42.656;23.292;2022-10-31T11:13:19;94919.97;;;21.55;45.57
9676;BME280;4876;42.656;23.292;2022-10-31T11:15:55;94915.53;;;21.66;45.23
9676;BME280;4876;42.656;23.292;2022-10-31T11:18:25;94918.56;;;21.65;45.10
9676;BME280;4876;42.656;23.292;2022-10-31T11:20:54;94907.53;;;21.70;44.89
9676;BME280;4876;42.656;23.292;2022-10-31T11:23:23;94902.69;;;21.45;44.65
9676;BME280;4876;42.656;23.292;2022-10-31T11:25:51;94909.31;;;21.59;44.63
9676;BME280;4876;42.656;23.292;2022-10-31T11:28:19;94909.72;;;21.61;44.68
9676;BME280;4876;42.656;23.292;2022-10-31T11:30:47;94904.56;;;21.78;44.08
9676;BME280;4876;42.656;23.292;2022-10-31T11:33:19;94893.00;;;21.71;44.96
9676;BME280;4876;42.656;23.292;2022-10-31T11:35:48;94879.06;;;21.55;44.90
9676;BME280;4876;42.656;23.292;2022-10-31T11:38:18;94889.41;;;21.56;45.01
9676;BME280;4876;42.656;23.292;2022-10-31T11:40:53;94895.56;;;21.60;44.52
9676;BME280;4876;42.656;23.292;2022-10-31T11:43:21;94896.25;;;21.54;44.95
9676;BME280;4876;42.656;23.292;2022-10-31T11:45:49;94893.25;;;21.59;45.08
9676;BME280;4876;42.656;23.292;2022-10-31T11:48:18;94895.88;;;21.52;45.15
9676;BME280;4876;42.656;23.292;2022-10-31T11:50:48;94891.47;;;21.70;44.47
9676;BME280;4876;42.656;23.292;2022-10-31T11:53:18;94883.56;;;21.84;44.42
9676;BME280;4876;42.656;23.292;2022-10-31T11:55:46;94884.66;;;21.76;44.77
9676;BME280;4876;42.656;23.292;2022-10-31T11:58:24;94881.38;;;21.93;45.02
9676;BME280;4876;42.656;23.292;2022-10-31T12:00:53;94880.97;;;21.91;45.09
9676;BME280;4876;42.656;23.292;2022-10-31T12:03:33;94878.28;;;21.91;44.69
9676;BME280;4876;42.656;23.292;2022-10-31T12:06:07;94876.16;;;22.08;44.67
9676;BME280;4876;42.656;23.292;2022-10-31T12:08:35;94881.72;;;21.88;44.59
9676;BME280;4876;42.656;23.292;2022-10-31T12:11:10;94878.44;;;22.06;44.60
9676;BME280;4876;42.656;23.292;2022-10-31T12:13:43;94876.81;;;21.97;44.95
9676;BME280;4876;42.656;23.292;2022-10-31T12:16:20;94868.84;;;22.04;45.01
9676;BME280;4876;42.656;23.292;2022-10-31T12:18:57;94871.88;;;21.99;44.37
9676;BME280;4876;42.656;23.292;2022-10-31T12:21:44;94867.31;;;22.03;44.47
9676;BME280;4876;42.656;23.292;2022-10-31T12:24:28;94879.03;;;21.88;44.49
9676;BME280;4876;42.656;23.292;2022-10-31T12:27:07;94871.69;;;22.19;43.96
9676;BME280;4876;42.656;23.292;2022-10-31T12:29:49;94789.41;;;21.75;43.87
9676;BME280;4876;42.656;23.292;2022-10-31T12:32:28;94877.53;;;22.35;43.96
9676;BME280;4876;42.656;23.292;2022-10-31T12:35:21;94870.41;;;22.53;43.94
9676;BME280;4876;42.656;23.292;2022-10-31T12:38:01;94870.41;;;22.53;43.79
9676;BME280;4876;42.656;23.292;2022-10-31T12:40:46;94870.94;;;22.22;44.30
9676;BME280;4876;42.656;23.292;2022-10-31T12:43:25;94869.06;;;22.26;43.99
9676;BME280;4876;42.656;23.292;2022-10-31T12:45:59;94869.81;;;22.26;44.25
9676;BME280;4876;42.656;23.292;2022-10-31T12:48:46;94873.31;;;22.30;43.70
9676;BME280;4876;42.656;23.292;2022-10-31T12:51:27;94873.44;;;22.48;43.28
9676;BME280;4876;42.656;23.292;2022-10-31T12:54:11;94862.81;;;22.63;43.26
9676;BME280;4876;42.656;23.292;2022-10-31T12:56:50;94867.06;;;22.67;43.01
9676;BME280;4876;42.656;23.292;2022-10-31T12:59:24;94873.53;;;22.63;42.90
9676;BME280;4876;42.656;23.292;2022-10-31T13:02:00;94868.88;;;22.52;43.65
9676;BME280;4876;42.656;23.292;2022-10-31T13:04:40;94869.66;;;22.56;43.89
9676;BME280;4876;42.656;23.292;2022-10-31T13:07:13;94870.50;;;22.68;42.75
9676;BME280;4876;42.656;23.292;2022-10-31T13:09:46;94782.47;;;22.15;42.77
9676;BME280;4876;42.656;23.292;2022-10-31T13:12:16;94869.25;;;22.54;43.22
9676;BME280;4876;42.656;23.292;2022-10-31T13:14:47;94864.59;;;22.44;43.34
9676;BME280;4876;42.656;23.292;2022-10-31T13:17:22;94862.38;;;22.57;44.24
9676;BME280;4876;42.656;23.292;2022-10-31T13:19:54;94830.09;;;22.39;44.16
9676;BME280;4876;42.656;23.292;2022-10-31T13:22:30;94868.56;;;22.61;43.57
9676;BME280;4876;42.656;23.292;2022-10-31T13:25:09;94867.06;;;22.71;43.54
9676;BME280;4876;42.656;23.292;2022-10-31T13:27:44;94864.72;;;22.66;43.54
9676;BME280;4876;42.656;23.292;2022-10-31T13:30:15;94862.09;;;22.73;43.13